createdAt,value
2018-12-06T00:00:42.120Z,14.30
2018-12-06T00:01:42.101Z,12.10
2018-12-06T00:02:42.073Z,12.80
2018-12-06T00:03:42.055Z,14.50
2018-12-06T00:04:42.031Z,14.30
2018-12-06T00:05:41.999Z,13.50
2018-12-06T00:06:41.982Z,13.80
2018-12-06T00:07:41.954Z,14.30
2018-12-06T00:08:41.938Z,13.40
2018-12-06T00:09:41.905Z,12.90
2018-12-06T00:10:41.883Z,13.20
2018-12-06T00:11:41.859Z,14.20
2018-12-06T00:12:41.841Z,15.10
2018-12-06T00:13:41.811Z,14.10
2018-12-06T00:14:41.795Z,13.70
2018-12-06T00:15:41.764Z,13.40
2018-12-06T00:16:41.739Z,13.20
2018-12-06T00:17:41.718Z,13.20
2018-12-06T00:18:41.691Z,15.00
2018-12-06T00:19:41.679Z,12.40
2018-12-06T00:20:41.645Z,14.20
2018-12-06T00:21:41.621Z,14.40
2018-12-06T00:22:41.599Z,16.40
2018-12-06T00:23:41.582Z,13.80
2018-12-06T00:24:41.552Z,15.30
2018-12-06T00:25:41.530Z,15.40
2018-12-06T00:26:41.513Z,15.60
2018-12-06T00:27:41.482Z,15.40
2018-12-06T00:28:41.459Z,19.00
2018-12-06T00:29:41.447Z,14.20
2018-12-06T00:30:41.410Z,14.70
2018-12-06T00:31:41.465Z,15.30
2018-12-06T00:32:41.365Z,17.10
2018-12-06T00:33:41.341Z,17.00
2018-12-06T00:34:41.316Z,15.00
2018-12-06T00:35:41.299Z,18.40
2018-12-06T00:36:41.269Z,15.80
2018-12-06T00:37:41.255Z,16.70
2018-12-06T00:38:41.224Z,17.10
2018-12-06T00:39:41.200Z,16.60
2018-12-06T00:40:41.197Z,17.50
2018-12-06T00:41:41.158Z,16.30
2018-12-06T00:42:41.128Z,16.50
2018-12-06T00:43:41.105Z,16.70
2018-12-06T00:44:41.081Z,16.60
2018-12-06T00:45:41.067Z,13.60
2018-12-06T00:46:41.036Z,19.90
2018-12-06T00:47:41.013Z,17.40
2018-12-06T00:48:40.989Z,17.40
2018-12-06T00:49:40.964Z,17.50
2018-12-06T00:50:40.942Z,18.80
2018-12-06T00:51:40.921Z,19.20
2018-12-06T00:52:40.894Z,16.60
2018-12-06T00:53:40.869Z,18.30
2018-12-06T00:54:40.851Z,19.10
2018-12-06T00:55:40.824Z,20.20
2018-12-06T00:56:40.800Z,16.70
2018-12-06T00:57:40.776Z,16.50
2018-12-06T00:58:40.754Z,17.30
2018-12-06T00:59:40.737Z,15.80
2018-12-06T01:00:40.707Z,17.30
2018-12-06T01:01:40.682Z,17.80
2018-12-06T01:02:40.668Z,21.10
2018-12-06T01:03:40.635Z,16.50
2018-12-06T01:04:40.615Z,18.60
2018-12-06T01:05:40.588Z,20.30
2018-12-06T01:06:40.581Z,17.60
2018-12-06T01:07:40.554Z,15.90
2018-12-06T01:08:40.519Z,15.20
2018-12-06T01:09:40.507Z,19.10
2018-12-06T01:10:40.471Z,17.90
2018-12-06T01:11:40.453Z,16.80
2018-12-06T01:12:40.428Z,17.00
2018-12-06T01:13:40.399Z,19.10
2018-12-06T01:14:40.378Z,22.30
2018-12-06T01:15:40.353Z,16.90
2018-12-06T01:16:40.338Z,18.50
2018-12-06T01:17:40.306Z,17.80
2018-12-06T01:18:40.284Z,17.90
2018-12-06T01:19:40.258Z,15.60
2018-12-06T01:20:40.235Z,17.60
2018-12-06T01:21:40.214Z,16.80
2018-12-06T01:22:40.186Z,18.50
2018-12-06T01:23:40.164Z,19.50
2018-12-06T01:24:40.139Z,17.10
2018-12-06T01:25:40.118Z,17.00
2018-12-06T01:26:40.092Z,17.10
2018-12-06T01:27:40.074Z,18.50
2018-12-06T01:28:40.047Z,15.30
2018-12-06T01:29:40.102Z,17.60
2018-12-06T01:30:40.017Z,17.90
2018-12-06T01:31:39.975Z,20.30
2018-12-06T01:32:39.951Z,18.80
2018-12-06T01:33:39.927Z,18.50
2018-12-06T01:34:39.904Z,17.70
2018-12-06T01:35:39.887Z,20.00
2018-12-06T01:36:39.873Z,17.20
2018-12-06T01:37:39.834Z,14.50
2018-12-06T01:38:39.813Z,19.40
2018-12-06T01:39:39.786Z,17.50
2018-12-06T01:40:39.761Z,18.00
2018-12-06T01:41:39.737Z,16.60
2018-12-06T01:42:39.720Z,14.50
2018-12-06T01:43:39.699Z,17.90
2018-12-06T01:44:39.672Z,17.00
2018-12-06T01:45:39.645Z,16.90
2018-12-06T01:46:39.620Z,18.80
2018-12-06T01:47:39.597Z,17.10
2018-12-06T01:48:39.573Z,19.00
2018-12-06T01:49:39.563Z,18.90
2018-12-06T01:50:39.526Z,17.80
2018-12-06T01:51:39.503Z,16.70
2018-12-06T01:52:39.480Z,16.90
2018-12-06T01:53:39.455Z,17.60
2018-12-06T01:54:39.438Z,16.30
2018-12-06T01:55:39.416Z,17.90
2018-12-06T01:56:39.385Z,19.40
2018-12-06T01:57:39.371Z,15.90
2018-12-06T01:58:39.338Z,19.70
2018-12-06T01:59:39.314Z,16.30
2018-12-06T02:00:39.292Z,20.60
2018-12-06T02:01:39.267Z,19.50
2018-12-06T02:02:39.244Z,17.00
2018-12-06T02:03:39.219Z,20.10
2018-12-06T02:04:39.196Z,20.30
2018-12-06T02:05:39.188Z,17.50
2018-12-06T02:06:39.148Z,22.00
2018-12-06T02:07:39.126Z,19.50
2018-12-06T02:08:39.104Z,18.30
2018-12-06T02:09:39.097Z,19.80
2018-12-06T02:10:39.053Z,20.40
2018-12-06T02:11:39.041Z,19.70
2018-12-06T02:12:39.160Z,18.40
2018-12-06T02:13:38.993Z,21.10
2018-12-06T02:14:38.961Z,19.80
2018-12-06T02:15:38.943Z,19.90
2018-12-06T02:16:38.915Z,17.50
2018-12-06T02:17:38.901Z,22.00
2018-12-06T02:18:38.868Z,21.30
2018-12-06T02:19:38.844Z,21.80
2018-12-06T02:20:38.823Z,18.60
2018-12-06T02:21:38.799Z,17.80
2018-12-06T02:22:38.778Z,18.60
2018-12-06T02:23:38.758Z,18.40
2018-12-06T02:24:38.729Z,17.90
2018-12-06T02:25:38.705Z,22.20
2018-12-06T02:26:38.690Z,17.30
2018-12-06T02:27:38.660Z,18.80
2018-12-06T02:28:38.635Z,18.40
2018-12-06T02:29:38.629Z,18.00
2018-12-06T02:30:38.601Z,19.00
2018-12-06T02:31:38.570Z,18.90
2018-12-06T02:32:38.558Z,18.50
2018-12-06T02:33:38.521Z,17.10
2018-12-06T02:34:38.499Z,18.80
2018-12-06T02:35:38.474Z,15.90
2018-12-06T02:36:38.462Z,17.40
2018-12-06T02:37:38.430Z,20.00
2018-12-06T02:38:38.403Z,18.60
2018-12-06T02:39:38.381Z,19.30
2018-12-06T02:40:38.363Z,17.30
2018-12-06T02:41:38.334Z,17.20
2018-12-06T02:42:38.319Z,21.20
2018-12-06T02:43:38.294Z,17.40
2018-12-06T02:44:38.271Z,18.10
2018-12-06T02:45:38.248Z,17.60
2018-12-06T02:46:38.220Z,17.30
2018-12-06T02:47:38.196Z,18.70
2018-12-06T02:48:38.173Z,17.80
2018-12-06T02:49:38.150Z,17.60
2018-12-06T02:50:38.138Z,18.20
2018-12-06T02:51:38.102Z,17.10
2018-12-06T02:52:38.156Z,19.20
2018-12-06T02:53:38.059Z,17.30
2018-12-06T02:54:38.035Z,18.30
2018-12-06T02:55:38.011Z,22.50
2018-12-06T02:56:37.990Z,20.80
2018-12-06T02:57:37.966Z,20.70
2018-12-06T02:58:37.943Z,17.20
2018-12-06T02:59:37.919Z,16.80
2018-12-06T03:00:37.901Z,17.70
2018-12-06T03:01:37.871Z,21.30
2018-12-06T03:02:37.851Z,19.80
2018-12-06T03:03:37.826Z,17.80
2018-12-06T03:04:37.802Z,18.10
2018-12-06T03:05:37.778Z,21.20
2018-12-06T03:06:37.756Z,21.10
2018-12-06T03:07:37.741Z,18.40
2018-12-06T03:08:37.710Z,17.10
2018-12-06T03:09:37.694Z,18.30
2018-12-06T03:10:37.677Z,20.70
2018-12-06T03:11:37.640Z,16.10
2018-12-06T03:12:37.618Z,20.20
2018-12-06T03:13:37.594Z,17.20
2018-12-06T03:14:37.571Z,18.60
2018-12-06T03:15:37.558Z,19.80
2018-12-06T03:16:37.525Z,19.90
2018-12-06T03:17:37.500Z,19.80
2018-12-06T03:18:37.479Z,18.80
2018-12-06T03:19:37.458Z,18.70
2018-12-06T03:20:37.438Z,19.20
2018-12-06T03:21:37.410Z,18.30
2018-12-06T03:22:37.397Z,16.90
2018-12-06T03:23:37.366Z,17.70
2018-12-06T03:24:37.342Z,18.20
2018-12-06T03:25:37.322Z,16.60
2018-12-06T03:26:37.296Z,15.30
2018-12-06T03:27:37.275Z,17.00
2018-12-06T03:28:37.251Z,17.40
2018-12-06T03:29:37.228Z,15.30
2018-12-06T03:30:37.205Z,16.40
2018-12-06T03:31:37.182Z,14.80
2018-12-06T03:32:37.173Z,15.80
2018-12-06T03:33:37.135Z,15.80
2018-12-06T03:34:37.113Z,16.10
2018-12-06T03:35:37.091Z,16.00
2018-12-06T03:36:37.067Z,16.60
2018-12-06T03:37:37.045Z,15.40
2018-12-06T03:38:37.034Z,14.70
2018-12-06T03:39:36.998Z,14.60
2018-12-06T03:40:36.978Z,16.40
2018-12-06T03:41:36.954Z,16.30
2018-12-06T03:42:36.934Z,15.70
2018-12-06T03:43:36.906Z,16.50
2018-12-06T03:44:36.888Z,18.80
2018-12-06T03:45:36.862Z,18.30
2018-12-06T03:46:36.841Z,16.20
2018-12-06T03:47:36.817Z,16.80
2018-12-06T03:48:36.801Z,16.10
2018-12-06T03:49:36.775Z,18.60
2018-12-06T03:50:36.748Z,16.70
2018-12-06T03:51:36.733Z,16.20
2018-12-06T03:52:36.702Z,17.90
2018-12-06T03:53:36.678Z,14.70
2018-12-06T03:54:36.654Z,18.20
2018-12-06T03:55:36.633Z,15.00
2018-12-06T03:56:36.610Z,16.00
2018-12-06T03:57:36.593Z,16.60
2018-12-06T03:58:36.564Z,15.70
2018-12-06T03:59:36.548Z,19.70
2018-12-06T04:00:36.522Z,17.10
2018-12-06T04:01:36.494Z,16.80
2018-12-06T04:02:36.470Z,17.60
2018-12-06T04:03:36.449Z,17.00
2018-12-06T04:04:36.429Z,20.70
2018-12-06T04:05:36.415Z,19.00
2018-12-06T04:06:36.379Z,18.50
2018-12-06T04:07:36.360Z,19.60
2018-12-06T04:08:36.336Z,18.00
2018-12-06T04:09:36.311Z,17.90
2018-12-06T04:10:36.288Z,20.10
2018-12-06T04:11:36.267Z,23.70
2018-12-06T04:12:36.247Z,21.50
2018-12-06T04:13:36.221Z,21.80
2018-12-06T04:14:36.197Z,19.90
2018-12-06T04:15:36.174Z,19.20
2018-12-06T04:16:36.152Z,21.20
2018-12-06T04:17:36.131Z,21.60
2018-12-06T04:18:36.106Z,22.20
2018-12-06T04:19:36.084Z,23.10
2018-12-06T04:20:36.067Z,21.80
2018-12-06T04:21:36.037Z,21.00
2018-12-06T04:22:36.014Z,23.40
2018-12-06T04:23:35.991Z,22.60
2018-12-06T04:24:35.975Z,22.70
2018-12-06T04:25:35.946Z,23.90
2018-12-06T04:26:35.930Z,24.00
2018-12-06T04:27:35.901Z,21.80
2018-12-06T04:28:35.880Z,21.20
2018-12-06T04:29:35.855Z,24.40
2018-12-06T04:30:35.830Z,22.70
2018-12-06T04:31:35.812Z,23.90
2018-12-06T04:32:35.791Z,20.40
2018-12-06T04:33:35.765Z,21.70
2018-12-06T04:34:35.741Z,25.40
2018-12-06T04:35:35.717Z,21.70
2018-12-06T04:36:35.694Z,24.00
2018-12-06T04:37:35.672Z,22.20
2018-12-06T04:38:35.648Z,23.60
2018-12-06T04:39:35.630Z,21.00
2018-12-06T04:40:35.616Z,21.20
2018-12-06T04:41:35.580Z,23.90
2018-12-06T04:42:35.556Z,22.20
2018-12-06T04:43:35.535Z,27.00
2018-12-06T04:44:35.513Z,26.80
2018-12-06T04:45:35.494Z,22.70
2018-12-06T04:46:35.466Z,23.40
2018-12-06T04:47:35.444Z,21.20
2018-12-06T04:48:35.418Z,25.60
2018-12-06T04:49:35.397Z,25.20
2018-12-06T04:50:35.388Z,20.80
2018-12-06T04:51:35.352Z,23.80
2018-12-06T04:52:35.346Z,25.40
2018-12-06T04:53:35.308Z,22.80
2018-12-06T04:54:35.283Z,24.40
2018-12-06T04:55:35.601Z,23.70
2018-12-06T04:56:35.237Z,24.60
2018-12-06T04:57:35.222Z,22.10
2018-12-06T04:58:35.192Z,26.40
2018-12-06T04:59:35.181Z,22.90
2018-12-06T05:00:35.161Z,26.00
2018-12-06T05:01:35.122Z,27.60
2018-12-06T05:02:35.194Z,23.90
2018-12-06T05:03:35.090Z,25.50
2018-12-06T05:04:35.054Z,24.20
2018-12-06T05:05:35.031Z,24.10
2018-12-06T05:06:35.010Z,21.20
2018-12-06T05:07:34.986Z,23.60
2018-12-06T05:08:34.970Z,24.20
2018-12-06T05:09:34.939Z,25.30
2018-12-06T05:10:34.917Z,23.40
2018-12-06T05:11:34.896Z,25.00
2018-12-06T05:12:34.871Z,24.50
2018-12-06T05:13:34.848Z,29.20
2018-12-06T05:14:34.826Z,25.30
2018-12-06T05:15:34.804Z,25.00
2018-12-06T05:16:34.781Z,25.40
2018-12-06T05:17:34.757Z,24.50
2018-12-06T05:18:34.735Z,27.10
2018-12-06T05:19:34.711Z,24.70
2018-12-06T05:20:34.694Z,25.30
2018-12-06T05:21:34.665Z,24.80
2018-12-06T05:22:34.644Z,25.70
2018-12-06T05:23:34.623Z,24.90
2018-12-06T05:24:34.599Z,29.00
2018-12-06T05:25:34.575Z,25.20
2018-12-06T05:26:34.553Z,26.60
2018-12-06T05:27:34.531Z,26.40
2018-12-06T05:28:34.509Z,29.10
2018-12-06T05:29:34.553Z,32.20
2018-12-06T05:30:34.463Z,32.00
2018-12-06T05:31:34.442Z,31.10
2018-12-06T05:32:34.417Z,35.30
2018-12-06T05:33:34.394Z,32.80
2018-12-06T05:34:34.383Z,34.70
2018-12-06T05:35:34.363Z,35.00
2018-12-06T05:36:34.429Z,35.40
2018-12-06T05:37:34.303Z,32.20
2018-12-06T05:38:34.280Z,35.80
2018-12-06T05:39:34.257Z,39.10
2018-12-06T05:40:34.235Z,34.10
2018-12-06T05:41:34.211Z,35.80
2018-12-06T05:42:34.192Z,34.20
2018-12-06T05:43:34.168Z,33.40
2018-12-06T05:44:34.143Z,39.60
2018-12-06T05:45:34.127Z,35.70
2018-12-06T05:46:34.097Z,39.00
2018-12-06T05:47:34.077Z,39.70
2018-12-06T05:48:34.055Z,38.70
2018-12-06T05:49:34.032Z,39.40
2018-12-06T05:50:34.013Z,36.60
2018-12-06T05:51:33.984Z,40.20
2018-12-06T05:52:33.963Z,38.80
2018-12-06T05:53:33.939Z,36.80
2018-12-06T05:54:33.916Z,42.90
2018-12-06T05:55:33.894Z,42.70
2018-12-06T05:56:33.872Z,41.10
2018-12-06T05:57:33.849Z,35.30
2018-12-06T05:58:33.827Z,42.80
2018-12-06T05:59:33.813Z,39.30
2018-12-06T06:00:33.786Z,38.20
2018-12-06T06:01:33.765Z,39.20
2018-12-06T06:02:33.734Z,38.40
2018-12-06T06:03:33.722Z,39.10
2018-12-06T06:04:33.692Z,42.90
2018-12-06T06:05:33.668Z,38.00
2018-12-06T06:06:33.643Z,41.50
2018-12-06T06:07:33.684Z,36.20
2018-12-06T06:08:33.599Z,40.60
2018-12-06T06:09:33.583Z,41.90
2018-12-06T06:10:33.563Z,41.70
2018-12-06T06:11:33.548Z,41.90
2018-12-06T06:12:33.508Z,42.60
2018-12-06T06:13:33.486Z,43.50
2018-12-06T06:14:33.467Z,43.00
2018-12-06T06:15:33.441Z,41.90
2018-12-06T06:16:33.422Z,46.40
2018-12-06T06:17:33.396Z,40.00
2018-12-06T06:18:33.373Z,40.50
2018-12-06T06:19:33.355Z,43.50
2018-12-06T06:20:33.330Z,42.90
2018-12-06T06:21:33.306Z,41.80
2018-12-06T06:22:33.283Z,43.30
2018-12-06T06:23:33.264Z,43.00
2018-12-06T06:24:33.248Z,43.80
2018-12-06T06:25:33.218Z,41.90
2018-12-06T06:26:33.193Z,43.50
2018-12-06T06:27:33.171Z,40.90
2018-12-06T06:28:33.155Z,42.00
2018-12-06T06:29:33.123Z,42.70
2018-12-06T06:30:33.102Z,49.20
2018-12-06T06:31:33.088Z,45.00
2018-12-06T06:32:33.058Z,41.10
2018-12-06T06:33:33.032Z,42.90
2018-12-06T06:34:33.013Z,44.00
2018-12-06T06:35:32.986Z,47.60
2018-12-06T06:36:32.973Z,44.00
2018-12-06T06:37:32.943Z,46.40
2018-12-06T06:38:32.927Z,44.20
2018-12-06T06:39:32.896Z,45.90
2018-12-06T06:40:32.875Z,44.10
2018-12-06T06:41:32.854Z,43.40
2018-12-06T06:42:32.831Z,45.30
2018-12-06T06:43:32.810Z,47.20
2018-12-06T06:44:32.788Z,44.30
2018-12-06T06:45:32.762Z,41.80
2018-12-06T06:46:32.745Z,44.20
2018-12-06T06:47:32.721Z,46.50
2018-12-06T06:48:32.698Z,43.10
2018-12-06T06:49:32.674Z,43.60
2018-12-06T06:50:32.655Z,42.80
2018-12-06T06:51:32.639Z,42.20
2018-12-06T06:52:32.599Z,41.70
2018-12-06T06:53:32.577Z,42.20
2018-12-06T06:54:32.553Z,42.90
2018-12-06T06:55:32.533Z,43.70
2018-12-06T06:56:32.518Z,44.20
2018-12-06T06:57:32.493Z,40.90
2018-12-06T06:58:32.465Z,39.30
2018-12-06T06:59:32.450Z,43.40
2018-12-06T07:00:32.420Z,39.50
2018-12-06T07:01:32.397Z,40.50
2018-12-06T07:02:32.374Z,40.70
2018-12-06T07:03:32.356Z,42.50
2018-12-06T07:04:32.329Z,40.70
2018-12-06T07:05:32.305Z,43.50
2018-12-06T07:06:32.283Z,41.90
2018-12-06T07:07:32.261Z,43.30
2018-12-06T07:08:32.238Z,43.70
2018-12-06T07:09:32.222Z,43.80
2018-12-06T07:10:32.195Z,40.50
2018-12-06T07:11:32.170Z,43.90
2018-12-06T07:12:32.148Z,42.10
2018-12-06T07:13:32.125Z,39.60
2018-12-06T07:14:32.112Z,42.20
2018-12-06T07:15:32.079Z,41.20
2018-12-06T07:16:32.066Z,38.50
2018-12-06T07:17:32.032Z,39.40
2018-12-06T07:18:32.010Z,44.90
2018-12-06T07:19:31.989Z,45.50
2018-12-06T07:20:31.966Z,40.40
2018-12-06T07:21:31.953Z,38.60
2018-12-06T07:22:31.923Z,42.40
2018-12-06T07:23:31.898Z,43.10
2018-12-06T07:24:31.886Z,53.50
2018-12-06T07:25:31.853Z,53.10
2018-12-06T07:26:31.870Z,49.00
2018-12-06T07:27:31.817Z,49.00
2018-12-06T07:28:31.787Z,64.70
2018-12-06T07:29:31.764Z,46.20
2018-12-06T07:30:31.739Z,44.10
2018-12-06T07:31:31.719Z,43.90
2018-12-06T07:32:31.708Z,43.00
2018-12-06T07:33:31.686Z,43.60
2018-12-06T07:34:31.654Z,44.70
2018-12-06T07:35:32.276Z,42.80
2018-12-06T07:36:31.606Z,45.10
2018-12-06T07:37:31.585Z,49.70
2018-12-06T07:38:31.570Z,51.40
2018-12-06T07:39:31.540Z,47.30
2018-12-06T07:40:31.524Z,47.30
2018-12-06T07:41:31.501Z,49.20
2018-12-06T07:42:31.490Z,50.60
2018-12-06T07:43:31.450Z,50.70
2018-12-06T07:44:31.429Z,50.40
2018-12-06T07:45:31.419Z,53.00
2018-12-06T07:46:31.393Z,49.00
2018-12-06T07:47:31.367Z,51.90
2018-12-06T07:48:31.338Z,52.40
2018-12-06T07:49:31.314Z,55.80
2018-12-06T07:50:31.291Z,47.30
2018-12-06T07:51:31.274Z,47.00
2018-12-06T07:52:31.248Z,46.60
2018-12-06T07:53:31.234Z,47.40
2018-12-06T07:54:31.215Z,44.90
2018-12-06T07:55:31.181Z,47.70
2018-12-06T07:56:31.158Z,48.00
2018-12-06T07:57:31.155Z,49.40
2018-12-06T07:58:31.113Z,48.60
2018-12-06T07:59:31.093Z,47.40
2018-12-06T08:00:31.070Z,43.50
2018-12-06T08:01:31.046Z,44.10
2018-12-06T08:02:31.031Z,48.60
2018-12-06T08:03:31.011Z,47.80
2018-12-06T08:04:31.001Z,46.00
2018-12-06T08:05:30.960Z,53.90
2018-12-06T08:06:30.938Z,53.10
2018-12-06T08:07:30.927Z,52.80
2018-12-06T08:08:30.895Z,54.00
2018-12-06T08:09:30.872Z,50.50
2018-12-06T08:10:30.861Z,53.70
2018-12-06T08:11:30.840Z,51.50
2018-12-06T08:12:30.817Z,53.60
2018-12-06T08:13:30.811Z,55.50
2018-12-06T08:14:30.762Z,60.50
2018-12-06T08:15:30.740Z,62.30
2018-12-06T08:16:30.736Z,54.50
2018-12-06T08:17:30.695Z,65.60
2018-12-06T08:18:30.678Z,61.30
2018-12-06T08:19:30.651Z,65.00
2018-12-06T08:20:30.630Z,59.90
2018-12-06T08:21:30.606Z,59.90
2018-12-06T08:22:30.587Z,63.90
2018-12-06T08:23:30.560Z,63.30
2018-12-06T08:24:30.556Z,66.00
2018-12-06T08:25:30.541Z,65.60
2018-12-06T08:26:30.503Z,60.70
2018-12-06T08:27:30.480Z,61.40
2018-12-06T08:28:30.450Z,60.80
2018-12-06T08:29:30.428Z,58.60
2018-12-06T08:30:30.406Z,64.10
2018-12-06T08:31:30.385Z,66.70
2018-12-06T08:32:30.364Z,59.50
2018-12-06T08:33:30.345Z,64.10
2018-12-06T08:34:30.318Z,63.50
2018-12-06T08:35:30.297Z,59.10
2018-12-06T08:36:30.282Z,63.30
2018-12-06T08:37:30.251Z,67.70
2018-12-06T08:38:30.241Z,65.10
2018-12-06T08:39:30.225Z,67.70
2018-12-06T08:40:30.186Z,67.10
2018-12-06T08:41:30.163Z,71.70
2018-12-06T08:42:30.146Z,75.30
2018-12-06T08:43:31.767Z,75.60
2018-12-06T08:44:30.150Z,81.30
2018-12-06T08:45:30.080Z,74.90
2018-12-06T08:46:30.058Z,79.90
2018-12-06T08:47:30.048Z,78.00
2018-12-06T08:48:30.009Z,72.50
2018-12-06T08:49:29.987Z,84.30
2018-12-06T08:50:29.964Z,78.20
2018-12-06T08:51:29.944Z,75.30
2018-12-06T08:52:29.923Z,84.50
2018-12-06T08:53:29.908Z,80.70
2018-12-06T08:54:29.882Z,77.90
2018-12-06T08:55:29.856Z,87.10
2018-12-06T08:56:29.843Z,81.20
2018-12-06T08:57:29.819Z,89.40
2018-12-06T08:58:29.791Z,98.50
2018-12-06T08:59:29.768Z,93.00
2018-12-06T09:00:29.749Z,90.00
2018-12-06T09:01:29.731Z,103.90
2018-12-06T09:02:29.703Z,92.20
2018-12-06T09:03:29.688Z,89.30
2018-12-06T09:04:29.660Z,90.70
2018-12-06T09:05:29.648Z,95.50
2018-12-06T09:06:29.615Z,97.10
2018-12-06T09:07:29.604Z,91.00
2018-12-06T09:08:29.581Z,91.20
2018-12-06T09:09:29.699Z,102.30
2018-12-06T09:10:29.528Z,105.30
2018-12-06T09:11:29.506Z,99.00
2018-12-06T09:12:29.486Z,108.20
2018-12-06T09:13:29.471Z,106.20
2018-12-06T09:14:29.442Z,101.00
2018-12-06T09:15:29.426Z,109.60
2018-12-06T09:16:29.398Z,104.60
2018-12-06T09:17:29.374Z,109.10
2018-12-06T09:18:29.367Z,105.40
2018-12-06T09:19:29.338Z,108.40
2018-12-06T09:20:29.363Z,117.70
2018-12-06T09:21:29.301Z,116.00
2018-12-06T09:22:29.272Z,123.90
2018-12-06T09:23:29.253Z,112.40
2018-12-06T09:24:29.233Z,128.80
2018-12-06T09:25:29.212Z,119.20
2018-12-06T09:26:29.185Z,127.80
2018-12-06T09:27:29.163Z,122.80
2018-12-06T09:28:29.142Z,132.20
2018-12-06T09:29:29.127Z,125.80
2018-12-06T09:30:29.103Z,125.10
2018-12-06T09:31:29.070Z,126.80
2018-12-06T09:32:29.051Z,123.00
2018-12-06T09:33:29.033Z,122.70
2018-12-06T09:34:29.013Z,121.70
2018-12-06T09:35:28.990Z,120.30
2018-12-06T09:36:29.130Z,114.00
2018-12-06T09:37:28.947Z,114.10
2018-12-06T09:38:28.928Z,118.60
2018-12-06T09:39:28.907Z,117.30
2018-12-06T09:40:28.880Z,119.40
2018-12-06T09:41:28.883Z,106.80
2018-12-06T09:42:28.841Z,114.30
2018-12-06T09:43:28.815Z,113.90
2018-12-06T09:44:28.808Z,104.70
2018-12-06T09:45:28.772Z,100.50
2018-12-06T09:46:28.748Z,101.50
2018-12-06T09:47:28.727Z,103.80
2018-12-06T09:48:28.709Z,101.10
2018-12-06T09:49:28.682Z,103.30
2018-12-06T09:50:28.676Z,96.10
2018-12-06T09:51:28.650Z,95.60
2018-12-06T09:52:28.636Z,95.60
2018-12-06T09:53:28.604Z,94.70
2018-12-06T09:54:28.577Z,84.30
2018-12-06T09:55:28.564Z,91.00
2018-12-06T09:56:28.540Z,85.10
2018-12-06T09:57:28.510Z,84.20
2018-12-06T09:58:28.501Z,79.70
2018-12-06T09:59:28.476Z,75.90
2018-12-06T10:00:28.454Z,85.80
2018-12-06T10:01:28.428Z,74.20
2018-12-06T10:02:28.417Z,76.70
2018-12-06T10:03:28.392Z,69.10
2018-12-06T10:04:28.370Z,68.60
2018-12-06T10:05:28.341Z,65.30
2018-12-06T10:06:28.331Z,67.00
2018-12-06T10:07:28.314Z,72.10
2018-12-06T10:08:28.279Z,63.70
2018-12-06T10:09:28.254Z,64.60
2018-12-06T10:10:28.251Z,65.20
2018-12-06T10:11:28.233Z,66.40
2018-12-06T10:12:28.192Z,71.50
2018-12-06T10:13:28.177Z,66.20
2018-12-06T10:14:28.156Z,68.30
2018-12-06T10:15:28.135Z,68.40
2018-12-06T10:16:28.121Z,69.10
2018-12-06T10:17:28.094Z,73.90
2018-12-06T10:18:28.091Z,69.70
2018-12-06T10:19:28.044Z,72.90
2018-12-06T10:20:28.029Z,72.70
2018-12-06T10:21:28.003Z,79.10
2018-12-06T10:22:27.981Z,84.30
2018-12-06T10:23:27.957Z,92.40
2018-12-06T10:24:27.945Z,90.30
2018-12-06T10:25:27.920Z,91.50
2018-12-06T10:26:27.901Z,94.90
2018-12-06T10:27:27.874Z,87.80
2018-12-06T10:28:27.850Z,96.70
2018-12-06T10:29:27.846Z,101.00
2018-12-06T10:30:27.806Z,103.70
2018-12-06T10:31:27.797Z,102.20
2018-12-06T10:32:27.772Z,104.20
2018-12-06T10:33:27.760Z,102.60
2018-12-06T10:34:27.721Z,107.70
2018-12-06T10:35:27.701Z,110.90
2018-12-06T10:36:27.682Z,114.20
2018-12-06T10:37:27.666Z,115.10
2018-12-06T10:38:27.649Z,112.40
2018-12-06T10:39:27.617Z,113.30
2018-12-06T10:40:27.595Z,104.80
2018-12-06T10:41:27.584Z,111.40
2018-12-06T10:42:27.561Z,111.70
2018-12-06T10:43:27.539Z,108.90
2018-12-06T10:44:27.511Z,114.90
2018-12-06T10:45:27.492Z,106.50
2018-12-06T10:46:27.471Z,110.50
2018-12-06T10:47:27.454Z,111.60
2018-12-06T10:48:27.431Z,98.80
2018-12-06T10:49:27.413Z,94.30
2018-12-06T10:50:27.383Z,98.30
2018-12-06T10:51:27.422Z,96.40
2018-12-06T10:52:27.343Z,92.90
2018-12-06T10:53:27.334Z,93.60
2018-12-06T10:54:27.298Z,88.70
2018-12-06T10:55:27.290Z,87.00
2018-12-06T10:56:27.257Z,91.80
2018-12-06T10:57:27.243Z,91.30
2018-12-06T10:58:27.220Z,93.70
2018-12-06T10:59:27.193Z,89.90
2018-12-06T11:00:27.177Z,91.50
2018-12-06T11:01:27.150Z,90.90
2018-12-06T11:02:27.144Z,97.00
2018-12-06T11:03:27.134Z,94.20
2018-12-06T11:04:27.095Z,96.70
2018-12-06T11:05:27.065Z,99.20
2018-12-06T11:06:27.046Z,95.70
2018-12-06T11:07:27.024Z,91.70
2018-12-06T11:08:27.004Z,91.50
2018-12-06T11:09:26.981Z,92.20
2018-12-06T11:10:27.011Z,87.60
2018-12-06T11:11:26.946Z,88.70
2018-12-06T11:12:26.919Z,94.60
2018-12-06T11:13:26.904Z,91.70
2018-12-06T11:14:26.877Z,91.30
2018-12-06T11:15:26.867Z,90.20
2018-12-06T11:16:26.836Z,93.30
2018-12-06T11:17:26.815Z,92.70
2018-12-06T11:18:26.792Z,96.40
2018-12-06T11:19:26.771Z,98.00
2018-12-06T11:20:26.750Z,95.10
2018-12-06T11:21:26.742Z,98.40
2018-12-06T11:22:26.721Z,94.70
2018-12-06T11:23:26.687Z,97.80
2018-12-06T11:24:26.675Z,93.00
2018-12-06T11:25:26.645Z,96.10
2018-12-06T11:26:26.622Z,91.60
2018-12-06T11:27:26.603Z,91.50
2018-12-06T11:28:26.582Z,94.60
2018-12-06T11:29:26.572Z,90.90
2018-12-06T11:30:26.539Z,90.60
2018-12-06T11:31:26.518Z,91.00
2018-12-06T11:32:26.497Z,93.40
2018-12-06T11:33:26.485Z,93.10
2018-12-06T11:34:26.454Z,90.90
2018-12-06T11:35:26.433Z,84.60
2018-12-06T11:36:26.415Z,95.60
2018-12-06T11:37:26.392Z,88.20
2018-12-06T11:38:26.384Z,89.70
2018-12-06T11:39:26.355Z,82.90
2018-12-06T11:40:26.342Z,76.30
2018-12-06T11:41:26.307Z,86.30
2018-12-06T11:42:26.287Z,84.90
2018-12-06T11:43:26.278Z,86.30
2018-12-06T11:44:26.254Z,83.20
2018-12-06T11:45:26.232Z,82.90
2018-12-06T11:46:26.214Z,77.60
2018-12-06T11:47:26.191Z,81.00
2018-12-06T11:48:27.072Z,80.40
2018-12-06T11:49:26.141Z,80.70
2018-12-06T11:50:26.120Z,76.40
2018-12-06T11:51:26.126Z,75.60
2018-12-06T11:52:26.098Z,77.00
2018-12-06T11:53:26.075Z,72.60
2018-12-06T11:54:26.044Z,69.40
2018-12-06T11:55:26.058Z,69.50
2018-12-06T11:56:26.006Z,66.60
2018-12-06T11:57:25.978Z,67.50
2018-12-06T11:58:25.973Z,69.40
2018-12-06T11:59:25.936Z,62.60
2018-12-06T12:00:25.929Z,66.90
2018-12-06T12:01:25.889Z,63.20
2018-12-06T12:02:25.871Z,64.20
2018-12-06T12:03:25.864Z,68.30
2018-12-06T12:04:25.829Z,61.70
2018-12-06T12:05:25.808Z,66.10
2018-12-06T12:06:25.797Z,62.00
2018-12-06T12:07:25.768Z,59.60
2018-12-06T12:08:25.751Z,56.50
2018-12-06T12:09:25.739Z,60.40
2018-12-06T12:10:25.712Z,58.60
2018-12-06T12:11:25.686Z,63.40
2018-12-06T12:12:25.666Z,58.00
2018-12-06T12:13:25.650Z,54.30
2018-12-06T12:14:25.622Z,57.50
2018-12-06T12:15:25.608Z,51.70
2018-12-06T12:16:25.589Z,50.80
2018-12-06T12:17:25.560Z,53.90
2018-12-06T12:18:25.542Z,56.40
2018-12-06T12:19:25.520Z,51.60
2018-12-06T12:20:25.499Z,47.50
2018-12-06T12:21:25.478Z,49.00
2018-12-06T12:22:25.460Z,49.10
2018-12-06T12:23:25.444Z,53.70
2018-12-06T12:24:25.423Z,52.60
2018-12-06T12:25:25.402Z,47.10
2018-12-06T12:26:25.382Z,56.90
2018-12-06T12:27:25.361Z,52.40
2018-12-06T12:28:25.350Z,47.40
2018-12-06T12:29:25.332Z,51.30
2018-12-06T12:30:25.293Z,51.30
2018-12-06T12:31:25.282Z,54.30
2018-12-06T12:32:25.267Z,46.00
2018-12-06T12:33:25.231Z,47.90
2018-12-06T12:34:25.215Z,48.90
2018-12-06T12:35:25.200Z,50.40
2018-12-06T12:36:25.182Z,44.60
2018-12-06T12:37:25.168Z,44.10
2018-12-06T12:38:25.130Z,40.80
2018-12-06T12:39:25.119Z,41.60
2018-12-06T12:40:25.100Z,42.80
2018-12-06T12:41:25.067Z,39.30
2018-12-06T12:42:25.050Z,37.10
2018-12-06T12:43:25.028Z,35.90
2018-12-06T12:44:25.009Z,35.00
2018-12-06T12:45:24.987Z,34.70
2018-12-06T12:46:24.970Z,38.10
2018-12-06T12:47:24.949Z,37.90
2018-12-06T12:48:24.926Z,33.50
2018-12-06T12:49:24.906Z,34.20
2018-12-06T12:50:24.889Z,40.00